Time;durP1;ratioP1;P1;durP2;ratioP2;P2;SDS_P1;SDS_P2;PMS_P1;PMS_P2;Temp;Humidity;BMP_temperature;BMP_pressure;BME280_temperature;BME280_humidity;BME280_pressure;Samples;Min_cycle;Max_cycle;Signal;HPM_P1;HPM_P2
2023/07/22 00:01:06;;;;;;;2.92;2.30;;;;;;;22.72;46.99;101337.66;5030235;28;20052;-72
2023/07/22 00:03:32;;;;;;;4.85;3.00;;;;;;;22.71;47.24;101336.00;5025240;28;20053;-72
2023/07/22 00:06:03;;;;;;;3.67;2.70;;;;;;;22.71;47.30;101341.31;5025635;28;20045;-72
2023/07/22 00:08:29;;;;;;;3.40;2.35;;;;;;;22.70;47.06;101337.84;5026914;28;20047;-72
2023/07/22 00:10:54;;;;;;;5.25;2.70;;;;;;;22.71;46.84;101334.16;5028392;28;20387;-72
2023/07/22 00:13:20;;;;;;;3.55;2.60;;;;;;;22.70;46.96;101329.06;5026862;28;20037;-72
2023/07/22 00:15:45;;;;;;;3.63;2.67;;;;;;;22.69;47.13;101325.56;5045315;28;20041;-72
2023/07/22 00:18:11;;;;;;;3.35;2.40;;;;;;;22.69;46.98;101324.75;5028414;28;20049;-72
2023/07/22 00:20:36;;;;;;;3.10;2.40;;;;;;;22.70;47.19;101318.44;5027433;28;20033;-72
2023/07/22 00:23:02;;;;;;;3.63;2.55;;;;;;;22.70;46.89;101321.09;5027535;28;20045;-72
2023/07/22 00:25:28;;;;;;;4.55;3.10;;;;;;;22.69;47.06;101316.78;5043948;28;20204;-72
2023/07/22 00:27:53;;;;;;;3.00;2.58;;;;;;;22.68;47.05;101312.50;5032385;28;20050;-72
2023/07/22 00:30:19;;;;;;;3.55;2.65;;;;;;;22.68;47.33;101315.97;5033737;28;20515;-72
2023/07/22 00:32:44;;;;;;;4.22;2.67;;;;;;;22.68;47.17;101320.44;5011970;28;20029;-72
2023/07/22 00:35:09;;;;;;;3.83;2.60;;;;;;;22.57;47.38;101309.28;5032001;28;20033;-72
2023/07/22 00:37:35;;;;;;;3.22;2.50;;;;;;;22.60;47.17;101319.53;5028849;28;20048;-72
2023/07/22 00:40:05;;;;;;;3.53;2.47;;;;;;;22.65;47.04;101321.66;5015676;28;20050;-72
2023/07/22 00:42:31;;;;;;;3.90;2.55;;;;;;;22.65;47.42;101324.31;5015076;28;20040;-73
2023/07/22 00:44:57;;;;;;;3.03;2.40;;;;;;;22.61;47.38;101318.53;5035160;28;20041;-71
2023/07/22 00:47:22;;;;;;;3.05;2.35;;;;;;;22.64;47.41;101316.53;5031457;28;20594;-72
2023/07/22 00:49:49;;;;;;;3.38;2.50;;;;;;;22.65;47.15;101323.50;5032805;28;20918;-72
2023/07/22 00:52:16;;;;;;;3.35;2.42;;;;;;;22.64;47.26;101321.84;5035020;28;20609;-72
2023/07/22 00:54:42;;;;;;;5.07;2.58;;;;;;;22.42;47.10;101278.47;5034770;28;20029;-72
2023/07/22 00:57:08;;;;;;;3.58;2.50;;;;;;;22.63;47.18;101312.22;5050365;28;20072;-72
2023/07/22 00:59:34;;;;;;;3.38;2.40;;;;;;;22.63;47.36;101312.22;5028870;28;20041;-72
2023/07/22 01:01:59;;;;;;;3.70;2.65;;;;;;;22.61;47.32;101310.56;5048376;28;20041;-72
2023/07/22 01:04:25;;;;;;;3.05;2.40;;;;;;;22.61;47.20;101318.53;5031131;28;20033;-72
2023/07/22 01:06:54;;;;;;;5.40;2.97;;;;;;;22.61;47.26;101315.03;5032833;28;20060;-72
2023/07/22 01:09:19;;;;;;;3.80;2.67;;;;;;;22.62;47.42;101322.00;5028650;28;20041;-71
2023/07/22 01:11:45;;;;;;;3.67;2.45;;;;;;;22.52;47.33;101303.72;5047234;28;20045;-72
2023/07/22 01:14:10;;;;;;;4.85;2.63;;;;;;;22.60;47.41;101316.88;5026662;28;20036;-71
2023/07/22 01:16:36;;;;;;;3.28;2.70;;;;;;;22.60;47.12;101313.41;5032526;28;20056;-73
2023/07/22 01:19:04;;;;;;;2.83;2.25;;;;;;;22.61;47.16;101318.53;5026703;28;20129;-73
2023/07/22 01:21:32;;;;;;;3.13;2.42;;;;;;;22.60;47.19;101316.88;5045245;28;20124;-72
2023/07/22 01:23:57;;;;;;;4.25;2.63;;;;;;;22.57;47.25;101317.25;5029710;28;20045;-72
2023/07/22 01:26:23;;;;;;;3.60;2.75;;;;;;;22.47;47.28;101295.50;5033804;28;20132;-72
2023/07/22 01:28:49;;;;;;;3.88;2.40;;;;;;;22.51;47.42;101299.44;5028231;28;20046;-72
2023/07/22 01:31:14;;;;;;;3.35;2.50;;;;;;;22.59;47.03;101309.09;5046208;28;20052;-72
2023/07/22 01:33:40;;;;;;;2.78;2.10;;;;;;;22.57;47.49;101308.47;5031696;28;20038;-72
2023/07/22 01:36:05;;;;;;;4.18;2.92;;;;;;;22.48;47.28;101297.16;5029486;28;20041;-72
2023/07/22 01:38:31;;;;;;;4.00;2.70;;;;;;;22.58;47.45;101310.13;5031426;28;20040;-72
2023/07/22 01:40:57;;;;;;;5.40;2.90;;;;;;;22.56;47.33;101301.53;5028246;28;20041;-72
2023/07/22 01:43:22;;;;;;;3.35;2.33;;;;;;;22.44;47.32;101284.41;5031846;28;20372;-72
2023/07/22 01:45:48;;;;;;;3.83;2.72;;;;;;;22.56;47.43;101297.03;5029472;28;20117;-72
2023/07/22 01:48:13;;;;;;;3.28;2.08;;;;;;;22.54;47.52;101300.88;5032722;28;20081;-72
2023/07/22 01:50:39;;;;;;;3.08;2.22;;;;;;;22.54;47.50;101303.53;5030696;28;20595;-72
2023/07/22 01:53:05;;;;;;;3.63;2.50;;;;;;;22.53;47.34;101299.25;5032477;28;20038;-72
2023/07/22 01:55:35;;;;;;;3.38;2.70;;;;;;;22.53;47.39;101304.56;5026046;28;20044;-72
2023/07/22 01:58:01;;;;;;;3.92;2.47;;;;;;;22.53;47.68;101304.56;5046601;28;20144;-74
2023/07/22 02:00:26;;;;;;;3.10;2.45;;;;;;;22.38;47.39;101274.56;5031743;28;20116;-72
2023/07/22 02:02:52;;;;;;;3.53;2.47;;;;;;;22.41;47.20;101285.63;5031837;28;20394;-72
2023/07/22 02:05:18;;;;;;;3.03;2.35;;;;;;;22.53;47.20;101299.25;5029782;28;20030;-72
2023/07/22 02:07:43;;;;;;;4.63;2.47;;;;;;;22.52;47.54;101303.72;5034740;28;20486;-72
2023/07/22 02:10:09;;;;;;;3.60;2.60;;;;;;;22.52;47.37;101309.03;5018355;28;20030;-72
2023/07/22 02:12:35;;;;;;;3.63;2.70;;;;;;;22.51;47.32;101303.91;5034616;28;20033;-72
2023/07/22 02:15:02;;;;;;;3.60;2.80;;;;;;;22.47;47.61;101290.19;5029363;28;20140;-72
2023/07/22 02:17:28;;;;;;;3.53;2.70;;;;;;;22.47;47.58;101298.16;5034274;28;20087;-72
2023/07/22 02:19:53;;;;;;;3.65;2.40;;;;;;;22.47;47.44;101300.81;5029907;28;20242;-72
2023/07/22 02:22:19;;;;;;;4.07;2.90;;;;;;;22.48;47.50;101299.81;5044258;28;20084;-71
2023/07/22 02:24:45;;;;;;;3.72;2.70;;;;;;;22.48;47.66;101299.00;5043812;28;20037;-72
2023/07/22 02:27:10;;;;;;;3.17;2.53;;;;;;;22.46;47.55;101298.34;5029013;28;20037;-72
2023/07/22 02:29:36;;;;;;;3.72;2.60;;;;;;;22.44;47.47;101293.22;5044873;28;20041;-72
2023/07/22 02:32:02;;;;;;;3.00;2.30;;;;;;;22.34;47.67;101278.59;5031474;28;20499;-71
2023/07/22 02:34:28;;;;;;;4.35;2.80;;;;;;;22.45;47.67;101294.06;5030821;28;20655;-73
2023/07/22 02:36:53;;;;;;;3.13;2.50;;;;;;;22.46;47.39;101299.19;5030640;28;20124;-72
2023/07/22 02:39:19;;;;;;;3.42;2.60;;;;;;;22.45;47.60;101299.38;5029931;28;20057;-73
2023/07/22 02:41:44;;;;;;;4.20;2.85;;;;;;;22.38;47.33;101287.81;5013229;28;20041;-72
2023/07/22 02:44:10;;;;;;;3.90;2.65;;;;;;;22.46;47.24;101304.47;5031664;28;20633;-72
2023/07/22 02:46:35;;;;;;;3.72;2.40;;;;;;;22.44;47.53;101309.16;5042865;28;20041;-71
2023/07/22 02:49:01;;;;;;;3.17;2.30;;;;;;;22.46;47.30;101306.31;5030281;28;20163;-72
2023/07/22 02:51:26;;;;;;;4.05;2.60;;;;;;;22.44;47.40;101305.66;5030577;28;20289;-72
2023/07/22 02:53:55;;;;;;;3.60;2.70;;;;;;;22.44;47.54;101308.31;5028079;28;20037;-72
2023/07/22 02:56:20;;;;;;;3.53;2.50;;;;;;;22.42;47.51;101305.00;5028311;28;20052;-72
2023/07/22 02:58:46;;;;;;;4.85;2.88;;;;;;;22.39;47.60;101311.50;5026111;28;20057;-71
2023/07/22 03:01:12;;;;;;;4.38;2.83;;;;;;;22.41;47.78;101300.72;5031046;28;20392;-72
2023/07/22 03:03:39;;;;;;;3.40;2.40;;;;;;;22.40;47.48;101304.38;5029744;28;20050;-72
2023/07/22 03:06:05;;;;;;;4.28;2.78;;;;;;;22.38;47.82;101299.25;5028591;28;20033;-72
2023/07/22 03:08:31;;;;;;;3.55;2.50;;;;;;;22.36;47.76;101298.63;5044242;28;20042;-72
2023/07/22 03:10:56;;;;;;;2.85;2.33;;;;;;;22.36;47.64;101295.97;5030512;28;20107;-73
2023/07/22 03:13:22;;;;;;;3.75;2.40;;;;;;;22.37;47.66;101300.28;5025882;28;20057;-72
2023/07/22 03:15:47;;;;;;;3.75;2.53;;;;;;;22.34;47.68;101291.88;5027344;28;20067;-71
2023/07/22 03:18:13;;;;;;;3.67;2.67;;;;;;;22.38;47.66;101301.09;5026416;28;20049;-72
2023/07/22 03:20:39;;;;;;;3.63;2.65;;;;;;;22.37;47.72;101312.72;5028999;28;20053;-72
2023/07/22 03:23:05;;;;;;;3.92;2.63;;;;;;;22.38;47.78;101309.06;5028157;28;20044;-72
2023/07/22 03:25:32;;;;;;;4.00;2.65;;;;;;;22.37;47.42;101305.56;5031331;28;20047;-72
2023/07/22 03:28:03;;;;;;;3.95;2.83;;;;;;;22.34;47.51;101313.09;5029133;28;20041;-72
2023/07/22 03:30:28;;;;;;;3.80;2.75;;;;;;;22.25;47.66;101299.09;5026107;28;20036;-72
2023/07/22 03:32:54;;;;;;;3.65;2.53;;;;;;;22.35;47.66;101312.91;5032041;28;20136;-72
2023/07/22 03:35:20;;;;;;;3.60;2.13;;;;;;;22.34;47.58;101308.59;5027868;28;20033;-72
2023/07/22 03:37:45;;;;;;;3.78;2.78;;;;;;;22.31;47.92;101295.72;5029198;28;20504;-72
2023/07/22 03:40:19;;;;;;;3.05;2.53;;;;;;;22.36;47.53;101305.75;5042721;28;20040;-72
2023/07/22 03:42:52;;;;;;;3.95;2.70;;;;;;;22.34;47.62;101311.25;5044338;28;20556;-72
2023/07/22 03:45:20;;;;;;;3.25;2.58;;;;;;;22.35;47.74;101306.78;5029791;28;20040;-72
2023/07/22 03:47:46;;;;;;;3.38;2.60;;;;;;;22.33;47.68;101306.97;5028830;28;20049;-72
2023/07/22 03:50:13;;;;;;;3.42;2.40;;;;;;;22.35;47.45;101307.59;5022923;28;20049;-72
2023/07/22 03:52:38;;;;;;;3.40;2.63;;;;;;;22.36;47.44;101309.25;5031626;28;20038;-73
2023/07/22 03:55:05;;;;;;;2.97;2.35;;;;;;;22.35;47.67;101314.72;5031168;28;20033;-72
2023/07/22 03:57:31;;;;;;;2.65;2.20;;;;;;;22.35;47.74;101312.09;5029650;28;20058;-72
2023/07/22 03:59:57;;;;;;;4.13;3.00;;;;;;;22.33;47.72;101312.25;5030865;28;20172;-72
2023/07/22 04:02:24;;;;;;;3.15;2.45;;;;;;;22.22;47.55;101300.28;5031659;28;20033;-72
2023/07/22 04:04:54;;;;;;;4.07;2.70;;;;;;;22.24;47.55;101300.91;5026577;28;20034;-72
2023/07/22 04:07:20;;;;;;;4.32;2.80;;;;;;;22.11;47.35;101281.38;5026189;28;20029;-72
2023/07/22 04:09:46;;;;;;;3.42;2.42;;;;;;;22.09;47.43;101289.50;5031035;28;20104;-72
2023/07/22 04:12:12;;;;;;;4.60;2.47;;;;;;;22.32;47.37;101318.59;5027369;28;20073;-72
2023/07/22 04:14:38;;;;;;;3.35;2.50;;;;;;;22.34;47.31;101313.91;5030696;28;20057;-72
2023/07/22 04:17:04;;;;;;;3.30;2.38;;;;;;;22.33;47.76;101312.25;5030397;28;20524;-72
2023/07/22 04:19:31;;;;;;;4.43;3.00;;;;;;;22.31;47.32;101324.91;5028008;28;20103;-72
2023/07/22 04:21:57;;;;;;;2.88;2.22;;;;;;;22.31;47.82;101314.28;5025437;28;20045;-72
2023/07/22 04:24:22;;;;;;;3.17;2.38;;;;;;;22.24;47.81;101294.78;5028289;28;20037;-72
2023/07/22 04:26:48;;;;;;;3.45;2.47;;;;;;;22.35;47.44;101312.09;5043933;28;20045;-73
2023/07/22 04:29:14;;;;;;;3.10;2.60;;;;;;;22.33;47.38;101306.13;5029570;28;20122;-72
2023/07/22 04:31:39;;;;;;;3.30;2.60;;;;;;;22.32;47.57;101310.63;5028066;28;20049;-72
2023/07/22 04:34:05;;;;;;;3.40;2.65;;;;;;;22.30;47.51;101307.34;5027898;28;20072;-72
2023/07/22 04:36:31;;;;;;;3.83;2.75;;;;;;;22.34;47.58;101305.13;5029912;28;20460;-72
2023/07/22 04:38:56;;;;;;;4.80;2.83;;;;;;;22.27;47.53;101299.75;5029019;28;20071;-73
2023/07/22 04:41:22;;;;;;;3.55;2.38;;;;;;;22.34;47.52;101305.13;5025802;28;20045;-72
2023/07/22 04:43:48;;;;;;;3.60;2.63;;;;;;;22.33;47.53;101300.84;5028309;28;20052;-71
2023/07/22 04:46:13;;;;;;;3.25;2.35;;;;;;;22.32;47.46;101302.66;5026396;28;20034;-72
2023/07/22 04:48:39;;;;;;;4.78;3.00;;;;;;;22.31;47.32;101309.81;5029124;28;20053;-72
2023/07/22 04:51:04;;;;;;;4.05;2.47;;;;;;;22.32;47.49;101305.31;5027342;28;20049;-72
2023/07/22 04:53:30;;;;;;;4.03;2.83;;;;;;;22.30;47.58;101310.81;5029093;28;20034;-72
2023/07/22 04:55:55;;;;;;;2.92;2.53;;;;;;;22.33;47.32;101316.75;5027621;28;20530;-71
2023/07/22 04:58:21;;;;;;;4.53;2.70;;;;;;;22.31;47.68;101312.47;5028558;28;20145;-73
2023/07/22 05:00:48;;;;;;;3.67;2.58;;;;;;;22.34;47.68;101315.75;5026359;28;20040;-72
2023/07/22 05:03:14;;;;;;;4.00;2.53;;;;;;;22.21;47.38;101285.38;5027281;28;20034;-72
2023/07/22 05:05:39;;;;;;;4.68;2.95;;;;;;;22.29;47.49;101297.72;5028284;28;20071;-72
2023/07/22 05:08:07;;;;;;;3.90;2.40;;;;;;;22.30;47.64;101302.84;5027563;28;20045;-74
2023/07/22 05:10:33;;;;;;;4.95;2.45;;;;;;;22.34;47.29;101308.59;5023762;28;20048;-71
2023/07/22 05:12:58;;;;;;;4.43;2.63;;;;;;;22.33;47.60;101308.78;5027573;28;20029;-71
2023/07/22 05:15:24;;;;;;;3.30;2.53;;;;;;;22.33;47.38;101306.13;5028137;28;20025;-72
2023/07/22 05:17:49;;;;;;;5.05;2.70;;;;;;;22.30;47.65;101300.19;5028084;28;20037;-72
2023/07/22 05:20:15;;;;;;;3.83;2.60;;;;;;;22.34;47.17;101299.81;5027285;28;20052;-72
2023/07/22 05:22:41;;;;;;;3.90;2.58;;;;;;;22.24;47.38;101287.66;5028754;28;20049;-71
2023/07/22 05:25:07;;;;;;;3.63;2.70;;;;;;;22.33;47.26;101304.31;5028416;28;20036;-72
2023/07/22 05:27:33;;;;;;;4.13;2.75;;;;;;;22.14;47.22;101265.91;5027131;28;20089;-72
2023/07/22 05:29:59;;;;;;;3.45;2.70;;;;;;;22.37;47.11;101304.75;5028485;28;20072;-72
2023/07/22 05:32:24;;;;;;;3.63;2.55;;;;;;;22.38;47.16;101306.41;5030214;28;20049;-71
2023/07/22 05:34:50;;;;;;;3.70;2.50;;;;;;;22.38;47.11;101301.09;5028541;28;20130;-72
2023/07/22 05:37:15;;;;;;;3.45;2.50;;;;;;;22.42;47.28;101305.00;5032735;28;20053;-71
2023/07/22 05:39:41;;;;;;;4.05;2.85;;;;;;;22.40;46.97;101297.25;5027046;28;20045;-72
2023/07/22 05:42:07;;;;;;;3.13;2.50;;;;;;;22.40;47.00;101296.41;5029737;28;20045;-72
2023/07/22 05:44:32;;;;;;;4.15;2.92;;;;;;;22.40;47.33;101296.41;5014853;28;20037;-73
2023/07/22 05:46:58;;;;;;;3.95;2.63;;;;;;;22.46;46.98;101304.47;5031596;28;20042;-71
2023/07/22 05:49:24;;;;;;;3.40;2.60;;;;;;;22.45;46.91;101302.84;5029642;28;20245;-72
2023/07/22 05:51:49;;;;;;;3.90;2.72;;;;;;;22.53;47.12;101308.03;5031736;28;20029;-72
2023/07/22 05:54:15;;;;;;;3.33;2.65;;;;;;;22.53;46.76;101301.91;5037343;28;20476;-72
2023/07/22 05:56:41;;;;;;;3.10;2.40;;;;;;;22.48;47.16;101305.13;5035533;28;20144;-72
2023/07/22 05:59:07;;;;;;;3.83;2.85;;;;;;;22.51;46.99;101310.03;5029393;28;20042;-72
2023/07/22 06:01:32;;;;;;;3.35;2.75;;;;;;;22.31;47.08;101277.97;5033218;28;20122;-72
2023/07/22 06:03:58;;;;;;;4.00;2.60;;;;;;;22.47;46.92;101292.84;5030959;28;20049;-72
2023/07/22 06:06:23;;;;;;;3.53;2.67;;;;;;;22.53;46.92;101310.69;5033280;28;20048;-71
2023/07/22 06:08:49;;;;;;;2.97;2.40;;;;;;;22.56;47.01;101310.31;5030166;28;20038;-72
2023/07/22 06:11:14;;;;;;;3.90;2.78;;;;;;;22.56;46.80;101314.78;5040235;28;20056;-72
2023/07/22 06:13:40;;;;;;;4.15;2.70;;;;;;;22.55;46.67;101308.66;5030479;28;20053;-72
2023/07/22 06:16:05;;;;;;;4.63;2.90;;;;;;;22.56;46.68;101302.34;5030291;28;20045;-72
2023/07/22 06:18:31;;;;;;;4.57;3.00;;;;;;;22.49;46.65;101287.34;5031252;28;20041;-72
2023/07/22 06:20:56;;;;;;;3.17;2.75;;;;;;;22.58;46.67;101305.63;5031718;28;20022;-72
2023/07/22 06:23:22;;;;;;;4.38;2.67;;;;;;;22.59;46.85;101303.78;5031912;28;20407;-72
2023/07/22 06:25:47;;;;;;;5.60;3.20;;;;;;;22.60;46.91;101306.25;5030894;28;20044;-72
2023/07/22 06:28:13;;;;;;;3.63;2.72;;;;;;;22.63;46.61;101306.94;5031348;28;20085;-72
2023/07/22 06:30:38;;;;;;;5.45;3.25;;;;;;;22.64;46.54;101311.22;5027875;28;20042;-71
2023/07/22 06:33:04;;;;;;;4.30;2.75;;;;;;;22.65;46.70;101305.72;5028545;28;20037;-72
2023/07/22 06:35:29;;;;;;;4.57;2.90;;;;;;;22.65;46.86;101308.38;5028382;28;20037;-72
2023/07/22 06:37:55;;;;;;;3.10;2.70;;;;;;;22.65;46.73;101308.38;5024945;28;20115;-72
2023/07/22 06:40:20;;;;;;;4.20;3.10;;;;;;;22.65;46.56;101305.72;5028084;28;20041;-72
2023/07/22 06:42:46;;;;;;;4.22;3.20;;;;;;;22.64;46.79;101305.91;5047759;28;20034;-72
2023/07/22 06:45:11;;;;;;;4.25;3.05;;;;;;;22.65;46.49;101305.72;5044957;28;20041;-72
2023/07/22 06:47:37;;;;;;;4.03;2.88;;;;;;;22.66;46.74;101298.59;5028881;28;20259;-72
2023/07/22 06:50:04;;;;;;;3.95;2.80;;;;;;;22.68;46.53;101293.91;5027272;28;20048;-72
2023/07/22 06:52:30;;;;;;;4.88;2.90;;;;;;;22.72;46.45;101298.66;5027224;28;20044;-74
2023/07/22 06:54:56;;;;;;;4.38;2.75;;;;;;;22.74;46.68;101298.47;5026058;28;20042;-72
2023/07/22 06:57:21;;;;;;;3.95;2.80;;;;;;;22.77;46.22;101298.06;5028465;28;20107;-71
2023/07/22 06:59:47;;;;;;;4.05;3.08;;;;;;;22.79;46.18;101296.88;5027783;28;20582;-72
2023/07/22 07:02:13;;;;;;;4.35;3.20;;;;;;;22.73;46.43;101292.31;5029927;28;20048;-71
2023/07/22 07:04:38;;;;;;;4.28;2.53;;;;;;;22.83;46.48;101305.34;5026427;28;21470;-72
2023/07/22 07:07:04;;;;;;;4.35;2.80;;;;;;;22.83;46.35;101303.50;5028596;28;20064;-71
2023/07/22 07:09:29;;;;;;;5.25;3.53;;;;;;;22.84;46.08;101291.88;5032552;28;20037;-72
2023/07/22 07:11:58;;;;;;;3.70;2.72;;;;;;;22.86;46.11;101297.81;5035814;28;20033;-70
2023/07/22 07:14:24;;;;;;;3.42;2.63;;;;;;;22.88;46.18;101290.47;5028283;28;20049;-72
2023/07/22 07:16:50;;;;;;;4.38;3.13;;;;;;;22.81;46.19;101286.91;5027427;28;20064;-72
2023/07/22 07:19:15;;;;;;;4.05;2.83;;;;;;;22.90;46.33;101301.72;5030498;28;20041;-73
2023/07/22 07:21:41;;;;;;;5.15;3.53;;;;;;;22.87;46.15;101296.81;5030775;28;20049;-73
2023/07/22 07:24:06;;;;;;;5.53;3.15;;;;;;;22.81;46.22;101292.22;5027221;28;20468;-72
2023/07/22 07:26:32;;;;;;;4.30;3.20;;;;;;;22.88;46.36;101301.09;5031283;28;20033;-74
2023/07/22 07:28:57;;;;;;;4.05;3.05;;;;;;;22.53;46.25;101246.97;5028353;28;20041;-73
2023/07/22 07:31:23;;;;;;;4.03;3.03;;;;;;;22.86;46.57;101305.78;5029968;28;20115;-73
2023/07/22 07:33:48;;;;;;;4.50;3.20;;;;;;;22.86;46.04;101300.47;5029077;28;20472;-72
2023/07/22 07:36:14;;;;;;;3.83;2.90;;;;;;;22.85;46.37;101290.88;5033266;28;20079;-71
2023/07/22 07:38:40;;;;;;;4.82;3.17;;;;;;;22.84;46.30;101289.22;5034018;28;20041;-72
2023/07/22 07:41:11;;;;;;;3.75;2.78;;;;;;;22.86;46.09;101292.50;5030317;28;20029;-72
2023/07/22 07:43:41;;;;;;;3.80;2.60;;;;;;;22.88;46.10;101294.97;5025856;28;20044;-71
2023/07/22 07:46:21;;;;;;;3.30;2.80;;;;;;;22.88;46.18;101292.31;5025503;28;20059;-72
2023/07/22 07:48:54;;;;;;;4.45;3.08;;;;;;;22.86;46.13;101299.66;5024033;28;20048;-72
2023/07/22 07:51:22;;;;;;;5.97;3.28;;;;;;;22.92;46.24;101307.69;5031035;28;20105;-72
2023/07/22 07:53:48;;;;;;;3.72;2.80;;;;;;;22.94;46.08;101304.00;5030913;28;20489;-72
2023/07/22 07:56:15;;;;;;;4.50;2.70;;;;;;;22.85;46.05;101290.88;5030466;28;20044;-71
2023/07/22 07:58:41;;;;;;;4.55;2.75;;;;;;;22.98;46.30;101302.63;5026548;28;20045;-69
2023/07/22 08:01:07;;;;;;;4.00;2.90;;;;;;;23.00;46.14;101301.44;5029803;28;20041;-68
2023/07/22 08:03:34;;;;;;;4.45;3.22;;;;;;;23.02;45.88;101299.41;5027365;28;20052;-69
2023/07/22 08:06:00;;;;;;;4.63;3.13;;;;;;;22.99;46.07;101299.78;5026385;28;20123;-68
2023/07/22 08:08:26;;;;;;;7.60;2.95;;;;;;;23.07;45.92;101298.84;5027510;28;20037;-68
2023/07/22 08:11:02;;;;;;;4.53;2.90;;;;;;;23.08;46.06;101297.81;5031445;28;20098;-69
2023/07/22 08:13:30;;;;;;;4.15;3.00;;;;;;;23.12;45.91;101293.75;5029379;28;20130;-68
2023/07/22 08:16:06;;;;;;;4.38;2.90;;;;;;;23.09;45.81;101288.84;5033567;28;20115;-67
2023/07/22 08:18:33;;;;;;;4.03;2.72;;;;;;;23.14;45.79;101297.06;5022832;28;20492;-69
2023/07/22 08:20:58;;;;;;;4.40;3.25;;;;;;;23.15;45.78;101296.03;5022674;28;20045;-69
2023/07/22 08:23:24;;;;;;;4.22;2.78;;;;;;;23.17;45.72;101299.34;5030125;28;20052;-69
2023/07/22 08:25:50;;;;;;;4.03;2.83;;;;;;;23.13;45.78;101293.56;5028116;28;20052;-68
2023/07/22 08:28:16;;;;;;;5.00;3.13;;;;;;;23.17;45.69;101288.72;5027929;28;20538;-68
2023/07/22 08:30:42;;;;;;;4.90;3.50;;;;;;;23.17;45.69;101294.03;5031302;28;20038;-68
2023/07/22 08:33:09;;;;;;;6.13;3.17;;;;;;;23.18;45.56;101293.03;5025357;28;20035;-68
2023/07/22 08:35:36;;;;;;;4.07;3.05;;;;;;;23.17;45.71;101286.06;5026299;28;20030;-68
2023/07/22 08:38:02;;;;;;;3.80;2.95;;;;;;;23.17;45.72;101288.72;5025449;28;20049;-69
2023/07/22 08:40:32;;;;;;;4.88;2.92;;;;;;;23.17;45.62;101286.88;5025876;28;20052;-72
2023/07/22 08:42:59;;;;;;;4.72;3.08;;;;;;;23.19;45.67;101289.34;5028171;28;20037;-73
2023/07/22 08:45:29;;;;;;;6.97;2.92;;;;;;;23.19;45.75;101286.69;5033109;28;20097;-73
2023/07/22 08:47:58;;;;;;;3.40;2.67;;;;;;;23.18;45.76;101288.53;5029577;28;20033;-74
2023/07/22 08:50:30;;;;;;;5.20;2.70;;;;;;;23.21;45.62;101284.66;5024499;28;20061;-72
2023/07/22 08:52:56;;;;;;;3.92;2.90;;;;;;;23.21;45.45;101290.81;5026055;28;20064;-73
2023/07/22 08:55:23;;;;;;;4.00;2.95;;;;;;;23.13;45.70;101274.97;5033010;28;20037;-73
2023/07/22 08:57:50;;;;;;;3.60;2.55;;;;;;;23.21;45.63;101290.81;5029694;28;20411;-72
2023/07/22 09:00:16;;;;;;;3.83;2.67;;;;;;;23.21;45.81;101293.47;5027223;28;20037;-73
2023/07/22 09:02:42;;;;;;;4.40;3.00;;;;;;;23.17;45.58;101289.53;5027078;28;20033;-73
2023/07/22 09:05:09;;;;;;;3.90;3.13;;;;;;;23.12;45.74;101280.47;5031577;28;20037;-72
2023/07/22 09:07:36;;;;;;;4.05;2.92;;;;;;;23.10;45.48;101271.88;5024789;28;20041;-71
2023/07/22 09:10:02;;;;;;;4.43;3.20;;;;;;;23.15;45.59;101283.56;5033307;28;20037;-72
2023/07/22 09:12:28;;;;;;;4.18;2.92;;;;;;;23.12;45.75;101281.31;5032749;28;20049;-72
2023/07/22 09:14:54;;;;;;;3.60;2.83;;;;;;;23.18;45.65;101301.00;5030960;28;20407;-72
2023/07/22 09:17:19;;;;;;;4.40;3.15;;;;;;;23.17;45.65;101302.84;5033077;28;20041;-73
2023/07/22 09:19:45;;;;;;;5.05;3.35;;;;;;;23.16;45.72;101301.19;5032820;28;20090;-71
2023/07/22 09:22:10;;;;;;;3.72;2.90;;;;;;;23.17;45.78;101297.53;5027202;28;20686;-72
2023/07/22 09:24:36;;;;;;;4.15;2.92;;;;;;;23.13;45.96;101304.19;5034164;28;20046;-73
2023/07/22 09:27:02;;;;;;;4.88;2.80;;;;;;;23.15;45.78;101302.16;5033798;28;20140;-73
2023/07/22 09:29:40;;;;;;;3.80;2.90;;;;;;;23.12;45.89;101301.75;5030935;28;20041;-73
2023/07/22 09:32:05;;;;;;;3.30;2.53;;;;;;;23.11;45.99;101300.09;5030118;28;20048;-74
2023/07/22 09:34:31;;;;;;;4.10;2.90;;;;;;;23.11;45.68;101300.91;5026586;28;20399;-73
2023/07/22 09:37:03;;;;;;;4.00;2.83;;;;;;;23.10;45.82;101293.13;5027237;28;20049;-74
2023/07/22 09:39:29;;;;;;;4.95;3.15;;;;;;;23.13;45.66;101298.06;5032689;28;20124;-73
2023/07/22 09:41:55;;;;;;;4.13;3.05;;;;;;;23.12;45.95;101294.59;5035146;28;20093;-73
2023/07/22 09:44:28;;;;;;;3.80;2.85;;;;;;;23.16;45.61;101292.38;5031790;28;20565;-74
2023/07/22 09:46:53;;;;;;;4.20;2.92;;;;;;;23.13;45.81;101292.75;5032003;28;20029;-73
2023/07/22 09:49:19;;;;;;;3.83;2.75;;;;;;;23.13;45.84;101285.59;5032788;28;20391;-74
2023/07/22 09:51:45;;;;;;;3.88;2.92;;;;;;;23.08;45.89;101280.03;5023775;28;20057;-74
2023/07/22 09:54:10;;;;;;;5.93;2.97;;;;;;;23.10;45.78;101278.03;5032694;28;20045;-72
2023/07/22 09:56:47;;;;;;;3.15;2.63;;;;;;;23.14;45.86;101283.78;5032604;28;20050;-73
2023/07/22 09:59:13;;;;;;;2.80;2.30;;;;;;;23.15;45.86;101285.41;5029039;28;20044;-72
2023/07/22 10:01:39;;;;;;;3.72;2.78;;;;;;;23.16;45.92;101289.72;5030842;28;20050;-72
2023/07/22 10:04:06;;;;;;;3.53;2.80;;;;;;;23.14;45.87;101283.78;5035385;28;20142;-72
2023/07/22 10:06:33;;;;;;;3.67;2.95;;;;;;;23.03;45.90;101269.19;5034157;28;20067;-71
2023/07/22 10:09:07;;;;;;;3.55;2.80;;;;;;;23.14;45.97;101278.44;5038887;28;20040;-72
2023/07/22 10:11:37;;;;;;;3.58;2.80;;;;;;;23.01;45.84;101251.78;5046973;28;20132;-73
2023/07/22 10:14:03;;;;;;;4.80;3.08;;;;;;;23.13;45.87;101271.50;5028233;28;20073;-73
2023/07/22 10:16:29;;;;;;;3.70;2.75;;;;;;;23.15;45.75;101274.78;5028028;28;20045;-73
2023/07/22 10:18:56;;;;;;;3.72;3.03;;;;;;;23.14;46.07;101283.78;5042950;28;20048;-72
2023/07/22 10:21:23;;;;;;;4.00;3.08;;;;;;;23.14;45.71;101271.31;5029034;28;20115;-73
2023/07/22 10:23:50;;;;;;;3.25;2.40;;;;;;;23.13;45.78;101271.50;5036841;28;20045;-74
2023/07/22 10:26:17;;;;;;;3.65;2.70;;;;;;;23.02;46.01;101264.06;5033321;28;20412;-73
2023/07/22 10:28:46;;;;;;;3.67;2.50;;;;;;;23.11;45.98;101276.19;5034241;28;20030;-74
2023/07/22 10:31:14;;;;;;;3.63;2.65;;;;;;;23.11;46.07;101278.84;5033638;28;20069;-73
2023/07/22 10:33:39;;;;;;;3.58;2.50;;;;;;;23.08;45.97;101273.91;5029327;28;20045;-73
2023/07/22 10:36:13;;;;;;;4.07;2.90;;;;;;;23.07;45.99;101272.28;5031942;28;20604;-72
2023/07/22 10:38:38;;;;;;;4.30;2.90;;;;;;;23.09;45.96;101281.69;5032296;28;20052;-73
2023/07/22 10:41:16;;;;;;;3.65;2.67;;;;;;;23.12;45.82;101280.47;5023682;28;20043;-73
2023/07/22 10:43:54;;;;;;;4.20;2.83;;;;;;;23.11;45.74;101284.97;5031495;28;20045;-72
2023/07/22 10:46:32;;;;;;;4.60;2.80;;;;;;;23.11;45.92;101292.94;5029964;28;20769;-74
2023/07/22 10:49:11;;;;;;;4.15;3.15;;;;;;;23.09;45.83;101286.19;5029846;28;20033;-73
2023/07/22 10:51:37;;;;;;;;;;;;;;;23.11;45.91;101289.47;5035412;28;20025;-74
2023/07/22 10:54:11;;;;;;;3.53;2.67;;;;;;;23.04;46.00;101285.94;5029410;28;19939;-74
2023/07/22 10:56:36;;;;;;;3.28;2.45;;;;;;;23.09;45.75;101294.97;5027378;28;20177;-74
2023/07/22 10:59:03;;;;;;;3.08;2.60;;;;;;;23.10;46.03;101301.94;5025928;28;20066;-70
2023/07/22 11:01:28;;;;;;;3.08;2.30;;;;;;;23.09;45.93;101289.66;5025747;28;20063;-73
2023/07/22 11:04:06;;;;;;;3.35;2.63;;;;;;;23.11;45.95;101302.75;5028901;28;20517;-70
2023/07/22 11:06:33;;;;;;;4.85;2.88;;;;;;;23.09;46.14;101304.78;5032120;28;20384;-75
2023/07/22 11:08:58;;;;;;;4.38;2.53;;;;;;;23.08;45.93;101301.28;5030961;28;20068;-71
2023/07/22 11:11:40;;;;;;;3.42;2.60;;;;;;;23.07;46.01;101310.28;5028800;28;20511;-71
2023/07/22 11:14:16;;;;;;;3.30;2.33;;;;;;;23.02;46.16;101299.41;5029742;28;20045;-71
2023/07/22 11:16:42;;;;;;;3.83;2.45;;;;;;;23.05;46.21;101304.34;5024541;28;20041;-71
2023/07/22 11:19:08;;;;;;;3.67;2.60;;;;;;;23.01;46.09;101289.81;5034095;28;20033;-72
2023/07/22 11:21:33;;;;;;;3.40;2.70;;;;;;;23.05;46.07;101298.22;5027546;28;20052;-71